sensor_id;sensor_type;location;lat;lon;timestamp;noise_LAeq;noise_LA_min;noise_LA_max;noise_LA01;noise_LA95
37163;Laerm;23057;48.554;14.454;2023-04-24T00:01:00;50.01;48.94;51.32;;
37163;Laerm;23057;48.554;14.454;2023-04-24T00:03:31;50.00;48.98;51.78;;
37163;Laerm;23057;48.554;14.454;2023-04-24T00:06:03;49.96;48.83;51.96;;
37163;Laerm;23057;48.554;14.454;2023-04-24T00:08:35;50.00;48.85;51.93;;
37163;Laerm;23057;48.554;14.454;2023-04-24T00:11:06;49.96;48.81;51.75;;
37163;Laerm;23057;48.554;14.454;2023-04-24T00:13:37;49.92;48.77;51.49;;
37163;Laerm;23057;48.554;14.454;2023-04-24T00:16:08;49.91;48.81;51.84;;
37163;Laerm;23057;48.554;14.454;2023-04-24T00:18:39;49.90;48.76;51.17;;
37163;Laerm;23057;48.554;14.454;2023-04-24T00:21:10;49.92;48.81;51.78;;
37163;Laerm;23057;48.554;14.454;2023-04-24T00:23:41;49.90;48.81;51.22;;
37163;Laerm;23057;48.554;14.454;2023-04-24T00:26:12;49.89;48.76;51.42;;
37163;Laerm;23057;48.554;14.454;2023-04-24T00:28:43;49.90;48.85;51.37;;
37163;Laerm;23057;48.554;14.454;2023-04-24T00:31:13;49.90;48.74;51.46;;
37163;Laerm;23057;48.554;14.454;2023-04-24T00:33:44;49.91;48.87;51.53;;
37163;Laerm;23057;48.554;14.454;2023-04-24T00:36:15;49.92;48.92;51.43;;
37163;Laerm;23057;48.554;14.454;2023-04-24T00:38:46;49.91;48.91;51.21;;
37163;Laerm;23057;48.554;14.454;2023-04-24T00:41:17;49.90;48.71;51.64;;
37163;Laerm;23057;48.554;14.454;2023-04-24T00:43:48;49.91;48.78;51.42;;
37163;Laerm;23057;48.554;14.454;2023-04-24T00:46:20;49.91;48.70;51.50;;
37163;Laerm;23057;48.554;14.454;2023-04-24T00:48:51;49.92;48.81;51.58;;
37163;Laerm;23057;48.554;14.454;2023-04-24T00:51:22;49.92;48.76;51.31;;
37163;Laerm;23057;48.554;14.454;2023-04-24T00:53:54;49.91;48.71;51.91;;
37163;Laerm;23057;48.554;14.454;2023-04-24T00:56:26;49.90;48.66;51.29;;
37163;Laerm;23057;48.554;14.454;2023-04-24T00:58:58;49.94;48.83;51.42;;
37163;Laerm;23057;48.554;14.454;2023-04-24T01:01:29;49.94;48.83;51.93;;
37163;Laerm;23057;48.554;14.454;2023-04-24T01:04:01;49.95;48.85;59.40;;
37163;Laerm;23057;48.554;14.454;2023-04-24T01:06:33;49.98;48.76;52.08;;
37163;Laerm;23057;48.554;14.454;2023-04-24T01:09:05;50.15;48.80;58.35;;
37163;Laerm;23057;48.554;14.454;2023-04-24T01:11:37;50.01;48.99;57.53;;
37163;Laerm;23057;48.554;14.454;2023-04-24T01:14:08;50.05;49.06;51.27;;
37163;Laerm;23057;48.554;14.454;2023-04-24T01:16:38;50.08;48.76;51.51;;
37163;Laerm;23057;48.554;14.454;2023-04-24T01:19:10;50.08;48.96;51.67;;
37163;Laerm;23057;48.554;14.454;2023-04-24T01:21:43;50.08;48.99;51.62;;
37163;Laerm;23057;48.554;14.454;2023-04-24T01:24:14;49.96;48.77;51.04;;
37163;Laerm;23057;48.554;14.454;2023-04-24T01:26:46;50.08;48.84;51.36;;
37163;Laerm;23057;48.554;14.454;2023-04-24T01:29:17;55.98;48.88;75.24;;
37163;Laerm;23057;48.554;14.454;2023-04-24T01:31:48;59.23;49.00;71.93;;
37163;Laerm;23057;48.554;14.454;2023-04-24T01:34:19;55.74;48.94;66.39;;
37163;Laerm;23057;48.554;14.454;2023-04-24T01:36:50;50.94;48.85;69.77;;
37163;Laerm;23057;48.554;14.454;2023-04-24T01:39:21;49.97;48.74;69.24;;
37163;Laerm;23057;48.554;14.454;2023-04-24T01:41:54;49.93;48.63;66.62;;
37163;Laerm;23057;48.554;14.454;2023-04-24T01:44:26;49.87;48.90;59.68;;
37163;Laerm;23057;48.554;14.454;2023-04-24T01:46:57;49.93;48.71;61.09;;
37163;Laerm;23057;48.554;14.454;2023-04-24T01:49:27;49.91;48.84;60.57;;
37163;Laerm;23057;48.554;14.454;2023-04-24T01:51:58;49.98;48.40;68.35;;
37163;Laerm;23057;48.554;14.454;2023-04-24T01:54:29;50.02;48.91;70.42;;
37163;Laerm;23057;48.554;14.454;2023-04-24T01:57:00;49.95;48.88;68.04;;
37163;Laerm;23057;48.554;14.454;2023-04-24T01:59:33;50.01;48.64;70.91;;
37163;Laerm;23057;48.554;14.454;2023-04-24T02:02:05;50.12;48.58;71.14;;
37163;Laerm;23057;48.554;14.454;2023-04-24T02:04:36;50.22;48.69;71.25;;
37163;Laerm;23057;48.554;14.454;2023-04-24T02:07:06;49.94;48.81;61.98;;
37163;Laerm;23057;48.554;14.454;2023-04-24T02:09:37;49.97;48.77;61.92;;
37163;Laerm;23057;48.554;14.454;2023-04-24T02:12:08;50.06;48.66;70.00;;
37163;Laerm;23057;48.554;14.454;2023-04-24T02:14:39;50.03;48.71;63.04;;
37163;Laerm;23057;48.554;14.454;2023-04-24T02:17:10;50.00;48.70;62.77;;
37163;Laerm;23057;48.554;14.454;2023-04-24T02:19:42;49.98;48.76;62.45;;
37163;Laerm;23057;48.554;14.454;2023-04-24T02:22:13;49.97;48.78;64.50;;
37163;Laerm;23057;48.554;14.454;2023-04-24T02:24:44;50.10;48.85;69.58;;
37163;Laerm;23057;48.554;14.454;2023-04-24T02:27:15;49.89;48.68;62.55;;
37163;Laerm;23057;48.554;14.454;2023-04-24T02:29:45;49.94;48.78;63.07;;
37163;Laerm;23057;48.554;14.454;2023-04-24T02:32:16;50.09;48.80;70.97;;
37163;Laerm;23057;48.554;14.454;2023-04-24T02:34:47;49.95;48.64;62.96;;
37163;Laerm;23057;48.554;14.454;2023-04-24T02:37:17;50.08;48.63;71.56;;
37163;Laerm;23057;48.554;14.454;2023-04-24T02:39:48;49.94;48.74;64.75;;
37163;Laerm;23057;48.554;14.454;2023-04-24T02:42:19;50.02;48.76;70.93;;
37163;Laerm;23057;48.554;14.454;2023-04-24T02:44:50;50.46;48.67;71.85;;
37163;Laerm;23057;48.554;14.454;2023-04-24T02:47:21;50.00;48.78;70.82;;
37163;Laerm;23057;48.554;14.454;2023-04-24T02:49:52;49.88;48.49;57.38;;
37163;Laerm;23057;48.554;14.454;2023-04-24T02:52:23;49.92;48.76;61.12;;
37163;Laerm;23057;48.554;14.454;2023-04-24T02:54:53;49.90;48.78;61.21;;
37163;Laerm;23057;48.554;14.454;2023-04-24T02:57:24;50.12;48.71;73.11;;
37163;Laerm;23057;48.554;14.454;2023-04-24T02:59:55;49.92;48.74;61.70;;
37163;Laerm;23057;48.554;14.454;2023-04-24T03:02:26;49.90;48.88;61.96;;
37163;Laerm;23057;48.554;14.454;2023-04-24T03:04:56;49.88;48.70;60.89;;
37163;Laerm;23057;48.554;14.454;2023-04-24T03:07:27;49.88;48.81;60.51;;
37163;Laerm;23057;48.554;14.454;2023-04-24T03:09:58;49.90;48.70;61.16;;
37163;Laerm;23057;48.554;14.454;2023-04-24T03:12:29;49.90;48.88;61.23;;
37163;Laerm;23057;48.554;14.454;2023-04-24T03:15:00;49.91;48.76;61.50;;
37163;Laerm;23057;48.554;14.454;2023-04-24T03:17:31;49.94;48.77;61.37;;
37163;Laerm;23057;48.554;14.454;2023-04-24T03:20:02;49.95;48.84;62.90;;
37163;Laerm;23057;48.554;14.454;2023-04-24T03:22:35;49.91;48.91;60.41;;
37163;Laerm;23057;48.554;14.454;2023-04-24T03:25:06;49.91;48.80;60.30;;
37163;Laerm;23057;48.554;14.454;2023-04-24T03:27:39;49.92;48.84;60.40;;
37163;Laerm;23057;48.554;14.454;2023-04-24T03:30:10;49.91;48.71;60.76;;
37163;Laerm;23057;48.554;14.454;2023-04-24T03:32:41;49.91;48.80;61.33;;
37163;Laerm;23057;48.554;14.454;2023-04-24T03:35:12;49.95;48.87;61.97;;
37163;Laerm;23057;48.554;14.454;2023-04-24T03:37:42;49.92;48.78;60.04;;
37163;Laerm;23057;48.554;14.454;2023-04-24T03:40:13;49.93;48.70;60.37;;
37163;Laerm;23057;48.554;14.454;2023-04-24T03:42:44;49.97;48.90;52.09;;
37163;Laerm;23057;48.554;14.454;2023-04-24T03:45:14;50.13;48.70;52.89;;
37163;Laerm;23057;48.554;14.454;2023-04-24T03:47:46;50.07;48.95;51.88;;
37163;Laerm;23057;48.554;14.454;2023-04-24T03:50:16;50.12;48.95;51.54;;
37163;Laerm;23057;48.554;14.454;2023-04-24T03:52:47;50.21;48.77;71.16;;
37163;Laerm;23057;48.554;14.454;2023-04-24T03:55:18;50.48;48.95;52.57;;
37163;Laerm;23057;48.554;14.454;2023-04-24T03:57:48;49.97;48.81;55.60;;
37163;Laerm;23057;48.554;14.454;2023-04-24T04:00:19;49.97;48.85;51.73;;
37163;Laerm;23057;48.554;14.454;2023-04-24T04:02:51;50.09;48.78;71.07;;
37163;Laerm;23057;48.554;14.454;2023-04-24T04:05:22;49.91;48.76;57.37;;
37163;Laerm;23057;48.554;14.454;2023-04-24T04:07:52;49.94;48.77;58.78;;
37163;Laerm;23057;48.554;14.454;2023-04-24T04:10:23;49.91;48.88;51.75;;
37163;Laerm;23057;48.554;14.454;2023-04-24T04:12:54;49.91;48.80;57.00;;
37163;Laerm;23057;48.554;14.454;2023-04-24T04:15:25;49.92;48.48;56.39;;
37163;Laerm;23057;48.554;14.454;2023-04-24T04:17:55;49.92;48.83;51.89;;
37163;Laerm;23057;48.554;14.454;2023-04-24T04:20:26;49.95;48.88;63.49;;
37163;Laerm;23057;48.554;14.454;2023-04-24T04:22:57;49.93;48.87;51.85;;
37163;Laerm;23057;48.554;14.454;2023-04-24T04:25:28;50.23;48.76;72.24;;
37163;Laerm;23057;48.554;14.454;2023-04-24T04:27:59;49.95;48.81;56.92;;
37163;Laerm;23057;48.554;14.454;2023-04-24T04:30:30;49.90;48.83;54.48;;
37163;Laerm;23057;48.554;14.454;2023-04-24T04:33:02;49.93;48.85;57.45;;
37163;Laerm;23057;48.554;14.454;2023-04-24T04:35:33;49.96;48.66;55.76;;
37163;Laerm;23057;48.554;14.454;2023-04-24T04:38:04;49.99;48.85;52.10;;
37163;Laerm;23057;48.554;14.454;2023-04-24T04:40:38;50.11;48.85;72.05;;
37163;Laerm;23057;48.554;14.454;2023-04-24T04:43:09;50.02;48.90;68.23;;
37163;Laerm;23057;48.554;14.454;2023-04-24T04:45:41;49.95;48.66;55.83;;
37163;Laerm;23057;48.554;14.454;2023-04-24T04:48:13;49.93;48.83;55.76;;
37163;Laerm;23057;48.554;14.454;2023-04-24T04:50:44;49.97;48.94;57.37;;
37163;Laerm;23057;48.554;14.454;2023-04-24T04:53:15;49.96;48.64;57.14;;
37163;Laerm;23057;48.554;14.454;2023-04-24T04:55:47;49.94;48.77;56.81;;
37163;Laerm;23057;48.554;14.454;2023-04-24T04:58:17;50.74;48.71;72.67;;
37163;Laerm;23057;48.554;14.454;2023-04-24T05:00:48;49.93;48.87;54.49;;
37163;Laerm;23057;48.554;14.454;2023-04-24T05:03:19;51.21;48.91;70.69;;
37163;Laerm;23057;48.554;14.454;2023-04-24T05:05:50;55.97;48.94;70.01;;
37163;Laerm;23057;48.554;14.454;2023-04-24T05:08:21;50.61;49.27;63.54;;
37163;Laerm;23057;48.554;14.454;2023-04-24T05:10:52;50.69;48.98;58.19;;
37163;Laerm;23057;48.554;14.454;2023-04-24T05:13:22;50.50;48.83;58.48;;
37163;Laerm;23057;48.554;14.454;2023-04-24T05:15:53;50.54;49.12;61.66;;
37163;Laerm;23057;48.554;14.454;2023-04-24T05:18:24;50.58;49.12;63.17;;
37163;Laerm;23057;48.554;14.454;2023-04-24T05:20:55;50.53;49.18;65.06;;
37163;Laerm;23057;48.554;14.454;2023-04-24T05:23:26;50.61;49.03;66.54;;
37163;Laerm;23057;48.554;14.454;2023-04-24T05:25:57;51.49;49.98;56.89;;
37163;Laerm;23057;48.554;14.454;2023-04-24T05:28:27;51.37;49.88;64.77;;
37163;Laerm;23057;48.554;14.454;2023-04-24T05:30:58;51.38;49.91;56.47;;
37163;Laerm;23057;48.554;14.454;2023-04-24T05:33:30;51.37;49.84;64.19;;
37163;Laerm;23057;48.554;14.454;2023-04-24T05:36:01;51.54;49.92;62.04;;
37163;Laerm;23057;48.554;14.454;2023-04-24T05:38:31;54.38;49.36;69.80;;
37163;Laerm;23057;48.554;14.454;2023-04-24T05:41:02;54.50;49.19;66.72;;
37163;Laerm;23057;48.554;14.454;2023-04-24T05:43:33;50.97;49.35;62.29;;
37163;Laerm;23057;48.554;14.454;2023-04-24T05:46:04;51.66;49.04;73.63;;
37163;Laerm;23057;48.554;14.454;2023-04-24T05:48:35;50.76;48.98;69.28;;
37163;Laerm;23057;48.554;14.454;2023-04-24T05:51:06;53.30;49.14;70.62;;
37163;Laerm;23057;48.554;14.454;2023-04-24T05:53:36;56.34;49.30;70.03;;
37163;Laerm;23057;48.554;14.454;2023-04-24T05:56:07;58.51;49.88;68.85;;
37163;Laerm;23057;48.554;14.454;2023-04-24T05:58:38;60.27;55.29;66.73;;
37163;Laerm;23057;48.554;14.454;2023-04-24T06:01:10;56.87;50.99;61.30;;
37163;Laerm;23057;48.554;14.454;2023-04-24T06:03:41;54.48;49.33;69.24;;
37163;Laerm;23057;48.554;14.454;2023-04-24T06:06:12;56.49;49.19;66.18;;
37163;Laerm;23057;48.554;14.454;2023-04-24T06:08:42;57.79;48.78;65.66;;
37163;Laerm;23057;48.554;14.454;2023-04-24T06:11:14;58.77;49.39;66.32;;
37163;Laerm;23057;48.554;14.454;2023-04-24T06:13:45;58.17;49.67;66.62;;
37163;Laerm;23057;48.554;14.454;2023-04-24T06:16:16;58.70;49.84;66.80;;
37163;Laerm;23057;48.554;14.454;2023-04-24T06:18:46;58.50;49.90;66.35;;
37163;Laerm;23057;48.554;14.454;2023-04-24T06:21:17;58.73;49.65;66.42;;
37163;Laerm;23057;48.554;14.454;2023-04-24T06:23:48;57.89;49.53;66.95;;
37163;Laerm;23057;48.554;14.454;2023-04-24T06:26:20;57.39;49.51;65.75;;
37163;Laerm;23057;48.554;14.454;2023-04-24T06:28:51;56.02;49.88;73.99;;
37163;Laerm;23057;48.554;14.454;2023-04-24T06:31:22;56.17;49.69;65.26;;
37163;Laerm;23057;48.554;14.454;2023-04-24T06:33:52;55.65;49.53;64.01;;
37163;Laerm;23057;48.554;14.454;2023-04-24T06:36:23;56.27;49.41;66.27;;
37163;Laerm;23057;48.554;14.454;2023-04-24T06:38:54;57.54;49.45;66.12;;
37163;Laerm;23057;48.554;14.454;2023-04-24T06:41:25;57.01;49.60;66.15;;
37163;Laerm;23057;48.554;14.454;2023-04-24T06:43:56;57.21;49.63;66.38;;
37163;Laerm;23057;48.554;14.454;2023-04-24T06:46:27;57.25;49.83;65.97;;
37163;Laerm;23057;48.554;14.454;2023-04-24T06:48:58;56.83;50.03;65.98;;
37163;Laerm;23057;48.554;14.454;2023-04-24T06:51:28;56.54;49.21;65.95;;
37163;Laerm;23057;48.554;14.454;2023-04-24T06:53:59;56.57;49.52;65.81;;
37163;Laerm;23057;48.554;14.454;2023-04-24T06:56:30;57.02;49.55;66.18;;
37163;Laerm;23057;48.554;14.454;2023-04-24T06:59:01;56.78;49.71;66.85;;
37163;Laerm;23057;48.554;14.454;2023-04-24T07:01:32;57.02;49.52;65.79;;
37163;Laerm;23057;48.554;14.454;2023-04-24T07:04:02;57.04;49.35;66.27;;
37163;Laerm;23057;48.554;14.454;2023-04-24T07:06:33;56.14;49.60;66.98;;
37163;Laerm;23057;48.554;14.454;2023-04-24T07:09:05;55.11;49.30;65.54;;
37163;Laerm;23057;48.554;14.454;2023-04-24T07:11:36;56.90;49.56;66.02;;
37163;Laerm;23057;48.554;14.454;2023-04-24T07:14:08;56.26;49.19;65.58;;
37163;Laerm;23057;48.554;14.454;2023-04-24T07:16:40;56.35;49.51;65.69;;
37163;Laerm;23057;48.554;14.454;2023-04-24T07:19:12;55.21;49.28;64.88;;
37163;Laerm;23057;48.554;14.454;2023-04-24T07:21:44;55.97;49.24;65.52;;
37163;Laerm;23057;48.554;14.454;2023-04-24T07:24:15;56.40;49.43;68.42;;
37163;Laerm;23057;48.554;14.454;2023-04-24T07:26:46;54.45;49.43;66.46;;
37163;Laerm;23057;48.554;14.454;2023-04-24T07:29:17;55.24;49.28;66.83;;
37163;Laerm;23057;48.554;14.454;2023-04-24T07:31:48;56.49;49.32;64.90;;
37163;Laerm;23057;48.554;14.454;2023-04-24T07:34:19;55.46;49.24;65.21;;
37163;Laerm;23057;48.554;14.454;2023-04-24T07:36:51;53.67;49.14;64.26;;
37163;Laerm;23057;48.554;14.454;2023-04-24T07:39:22;54.89;49.08;65.03;;
37163;Laerm;23057;48.554;14.454;2023-04-24T07:41:53;54.25;49.21;64.94;;
37163;Laerm;23057;48.554;14.454;2023-04-24T07:44:24;55.31;49.11;65.09;;
37163;Laerm;23057;48.554;14.454;2023-04-24T07:46:56;54.26;49.19;64.06;;
37163;Laerm;23057;48.554;14.454;2023-04-24T07:49:26;54.20;49.19;64.17;;
37163;Laerm;23057;48.554;14.454;2023-04-24T07:51:58;53.60;49.29;63.17;;
37163;Laerm;23057;48.554;14.454;2023-04-24T07:54:30;54.46;49.20;65.18;;
37163;Laerm;23057;48.554;14.454;2023-04-24T07:57:01;54.92;49.15;64.89;;
37163;Laerm;23057;48.554;14.454;2023-04-24T07:59:32;54.03;49.19;64.33;;
37163;Laerm;23057;48.554;14.454;2023-04-24T08:02:03;53.92;49.10;63.10;;
37163;Laerm;23057;48.554;14.454;2023-04-24T08:04:33;54.74;49.34;63.62;;
37163;Laerm;23057;48.554;14.454;2023-04-24T08:07:07;55.66;49.25;66.97;;
37163;Laerm;23057;48.554;14.454;2023-04-24T08:09:38;54.37;49.20;64.00;;
37163;Laerm;23057;48.554;14.454;2023-04-24T08:12:09;55.06;49.07;64.42;;
37163;Laerm;23057;48.554;14.454;2023-04-24T08:14:40;54.83;49.32;59.72;;
37163;Laerm;23057;48.554;14.454;2023-04-24T08:17:11;55.10;49.36;60.47;;
37163;Laerm;23057;48.554;14.454;2023-04-24T08:19:41;54.93;49.49;59.92;;
37163;Laerm;23057;48.554;14.454;2023-04-24T08:22:18;54.86;49.45;59.82;;
37163;Laerm;23057;48.554;14.454;2023-04-24T08:24:49;54.80;49.25;62.65;;
37163;Laerm;23057;48.554;14.454;2023-04-24T08:27:20;55.02;49.18;60.65;;
37163;Laerm;23057;48.554;14.454;2023-04-24T08:29:53;55.57;49.33;63.29;;
37163;Laerm;23057;48.554;14.454;2023-04-24T08:32:24;55.88;49.33;61.38;;
37163;Laerm;23057;48.554;14.454;2023-04-24T08:34:56;58.52;49.49;68.17;;
37163;Laerm;23057;48.554;14.454;2023-04-24T08:37:27;57.46;49.11;67.72;;
37163;Laerm;23057;48.554;14.454;2023-04-24T08:39:58;53.23;49.29;75.63;;
37163;Laerm;23057;48.554;14.454;2023-04-24T08:42:30;52.53;48.96;59.04;;
37163;Laerm;23057;48.554;14.454;2023-04-24T08:45:04;52.43;49.29;56.43;;
37163;Laerm;23057;48.554;14.454;2023-04-24T08:47:38;52.92;49.39;57.05;;
37163;Laerm;23057;48.554;14.454;2023-04-24T08:50:10;53.08;49.56;56.57;;
37163;Laerm;23057;48.554;14.454;2023-04-24T08:52:42;52.94;49.49;57.09;;
37163;Laerm;23057;48.554;14.454;2023-04-24T08:55:13;53.17;49.20;56.95;;
37163;Laerm;23057;48.554;14.454;2023-04-24T08:57:48;53.55;49.43;57.66;;
37163;Laerm;23057;48.554;14.454;2023-04-24T09:00:22;53.99;49.57;58.26;;
37163;Laerm;23057;48.554;14.454;2023-04-24T09:02:53;53.97;49.91;57.40;;
37163;Laerm;23057;48.554;14.454;2023-04-24T09:05:25;53.84;49.84;57.99;;
37163;Laerm;23057;48.554;14.454;2023-04-24T09:07:57;53.62;49.77;57.79;;
37163;Laerm;23057;48.554;14.454;2023-04-24T09:10:29;53.52;49.85;57.47;;
37163;Laerm;23057;48.554;14.454;2023-04-24T09:13:01;53.27;49.74;58.28;;
37163;Laerm;23057;48.554;14.454;2023-04-24T09:15:32;59.34;49.44;72.60;;
37163;Laerm;23057;48.554;14.454;2023-04-24T09:18:04;66.69;50.39;74.27;;
37163;Laerm;23057;48.554;14.454;2023-04-24T09:20:58;67.11;50.81;74.99;;
37163;Laerm;23057;48.554;14.454;2023-04-24T09:23:31;55.27;49.53;71.07;;
37163;Laerm;23057;48.554;14.454;2023-04-24T09:26:03;53.09;49.64;57.65;;
37163;Laerm;23057;48.554;14.454;2023-04-24T09:28:40;53.02;49.63;62.02;;
37163;Laerm;23057;48.554;14.454;2023-04-24T09:31:17;53.13;50.03;63.52;;
37163;Laerm;23057;48.554;14.454;2023-04-24T09:36:37;53.38;50.01;62.61;;
37163;Laerm;23057;48.554;14.454;2023-04-24T09:39:15;53.41;50.42;62.14;;
37163;Laerm;23057;48.554;14.454;2023-04-24T09:41:54;53.37;50.13;62.69;;
37163;Laerm;23057;48.554;14.454;2023-04-24T09:44:28;53.66;50.10;62.11;;
37163;Laerm;23057;48.554;14.454;2023-04-24T09:47:00;53.35;50.19;57.03;;
37163;Laerm;23057;48.554;14.454;2023-04-24T09:49:31;53.32;50.04;57.81;;
37163;Laerm;23057;48.554;14.454;2023-04-24T09:52:11;53.78;50.36;57.83;;
37163;Laerm;23057;48.554;14.454;2023-04-24T09:54:42;54.21;50.43;58.49;;
37163;Laerm;23057;48.554;14.454;2023-04-24T09:57:14;54.41;50.60;60.28;;
37163;Laerm;23057;48.554;14.454;2023-04-24T09:59:46;55.04;51.20;61.52;;
37163;Laerm;23057;48.554;14.454;2023-04-24T10:02:19;55.00;50.81;62.01;;
37163;Laerm;23057;48.554;14.454;2023-04-24T10:04:57;55.31;51.25;62.28;;
37163;Laerm;23057;48.554;14.454;2023-04-24T10:07:32;54.57;51.02;61.87;;
37163;Laerm;23057;48.554;14.454;2023-04-24T10:10:04;54.12;50.90;59.64;;
37163;Laerm;23057;48.554;14.454;2023-04-24T10:12:35;53.76;50.79;58.90;;
37163;Laerm;23057;48.554;14.454;2023-04-24T10:15:09;54.12;50.26;60.84;;
37163;Laerm;23057;48.554;14.454;2023-04-24T10:17:44;53.54;50.29;58.10;;
37163;Laerm;23057;48.554;14.454;2023-04-24T10:20:28;53.68;49.77;59.30;;
37163;Laerm;23057;48.554;14.454;2023-04-24T10:23:01;53.42;49.75;58.34;;
37163;Laerm;23057;48.554;14.454;2023-04-24T10:25:34;53.39;49.80;59.67;;
37163;Laerm;23057;48.554;14.454;2023-04-24T10:28:05;53.38;49.70;59.44;;
37163;Laerm;23057;48.554;14.454;2023-04-24T10:30:36;54.08;49.73;60.40;;
37163;Laerm;23057;48.554;14.454;2023-04-24T10:33:08;54.39;49.66;60.09;;
37163;Laerm;23057;48.554;14.454;2023-04-24T10:35:44;53.76;49.59;59.90;;
37163;Laerm;23057;48.554;14.454;2023-04-24T10:38:22;53.63;49.69;59.81;;
37163;Laerm;23057;48.554;14.454;2023-04-24T10:41:09;53.23;49.27;59.75;;
37163;Laerm;23057;48.554;14.454;2023-04-24T10:43:41;53.13;49.67;57.44;;
37163;Laerm;23057;48.554;14.454;2023-04-24T10:46:20;53.03;49.43;59.16;;
37163;Laerm;23057;48.554;14.454;2023-04-24T10:48:54;53.55;49.10;66.86;;
37163;Laerm;23057;48.554;14.454;2023-04-24T10:51:52;53.98;49.29;60.35;;
37163;Laerm;23057;48.554;14.454;2023-04-24T11:00:19;53.84;49.50;60.33;;
37163;Laerm;23057;48.554;14.454;2023-04-24T11:02:52;53.52;49.46;57.45;;
37163;Laerm;23057;48.554;14.454;2023-04-24T11:05:50;53.39;49.82;60.43;;
37163;Laerm;23057;48.554;14.454;2023-04-24T11:11:18;54.47;50.49;62.52;;
37163;Laerm;23057;48.554;14.454;2023-04-24T11:16:54;55.33;50.49;62.57;;
37163;Laerm;23057;48.554;14.454;2023-04-24T11:19:27;54.71;50.09;62.86;;
37163;Laerm;23057;48.554;14.454;2023-04-24T11:22:02;53.58;49.95;60.30;;
37163;Laerm;23057;48.554;14.454;2023-04-24T11:24:40;53.66;50.14;62.02;;
37163;Laerm;23057;48.554;14.454;2023-04-24T11:27:17;53.63;50.08;61.18;;
37163;Laerm;23057;48.554;14.454;2023-04-24T11:35:17;53.64;50.34;61.16;;
37163;Laerm;23057;48.554;14.454;2023-04-24T11:37:51;53.18;50.03;61.02;;
37163;Laerm;23057;48.554;14.454;2023-04-24T11:40:23;53.58;49.93;61.95;;
37163;Laerm;23057;48.554;14.454;2023-04-24T11:42:54;53.55;49.71;62.29;;
37163;Laerm;23057;48.554;14.454;2023-04-24T11:45:30;54.70;50.85;62.46;;
37163;Laerm;23057;48.554;14.454;2023-04-24T11:48:03;54.43;50.56;62.70;;
37163;Laerm;23057;48.554;14.454;2023-04-24T11:50:34;53.91;50.06;61.88;;
37163;Laerm;23057;48.554;14.454;2023-04-24T11:53:05;53.54;49.69;61.42;;
37163;Laerm;23057;48.554;14.454;2023-04-24T11:55:36;53.10;49.92;60.04;;
37163;Laerm;23057;48.554;14.454;2023-04-24T11:58:07;53.18;49.77;60.29;;
37163;Laerm;23057;48.554;14.454;2023-04-24T12:00:37;54.63;50.55;61.00;;
37163;Laerm;23057;48.554;14.454;2023-04-24T12:03:12;56.39;50.91;63.08;;
37163;Laerm;23057;48.554;14.454;2023-04-24T12:05:42;54.79;50.93;61.98;;
37163;Laerm;23057;48.554;14.454;2023-04-24T12:08:30;55.34;51.39;63.46;;
37163;Laerm;23057;48.554;14.454;2023-04-24T12:11:05;56.05;51.08;65.61;;
37163;Laerm;23057;48.554;14.454;2023-04-24T12:13:37;56.07;51.97;64.20;;
37163;Laerm;23057;48.554;14.454;2023-04-24T12:16:08;55.82;52.23;64.01;;
37163;Laerm;23057;48.554;14.454;2023-04-24T12:18:43;55.93;51.95;63.68;;
37163;Laerm;23057;48.554;14.454;2023-04-24T12:21:22;55.78;52.62;63.69;;
37163;Laerm;23057;48.554;14.454;2023-04-24T12:23:55;56.03;52.18;64.40;;
37163;Laerm;23057;48.554;14.454;2023-04-24T12:26:27;56.25;52.09;64.42;;
37163;Laerm;23057;48.554;14.454;2023-04-24T12:29:01;56.81;51.52;65.09;;
37163;Laerm;23057;48.554;14.454;2023-04-24T12:31:33;56.95;52.54;65.25;;
37163;Laerm;23057;48.554;14.454;2023-04-24T12:34:21;57.28;53.43;64.35;;
37163;Laerm;23057;48.554;14.454;2023-04-24T12:36:52;57.15;53.31;64.21;;
37163;Laerm;23057;48.554;14.454;2023-04-24T12:39:22;56.30;52.60;63.27;;
37163;Laerm;23057;48.554;14.454;2023-04-24T12:41:58;56.23;51.22;64.66;;
37163;Laerm;23057;48.554;14.454;2023-04-24T12:44:34;56.28;52.26;63.78;;
37163;Laerm;23057;48.554;14.454;2023-04-24T12:47:05;56.40;52.57;63.99;;
37163;Laerm;23057;48.554;14.454;2023-04-24T12:49:36;57.72;52.83;65.95;;
37163;Laerm;23057;48.554;14.454;2023-04-24T12:52:07;57.43;53.22;64.72;;
37163;Laerm;23057;48.554;14.454;2023-04-24T12:54:38;58.41;54.29;65.92;;
37163;Laerm;23057;48.554;14.454;2023-04-24T12:57:09;58.94;53.98;65.53;;
37163;Laerm;23057;48.554;14.454;2023-04-24T12:59:39;57.75;52.70;65.49;;
37163;Laerm;23057;48.554;14.454;2023-04-24T13:02:11;58.11;53.45;65.17;;
37163;Laerm;23057;48.554;14.454;2023-04-24T13:04:43;57.08;52.08;64.95;;
37163;Laerm;23057;48.554;14.454;2023-04-24T13:07:14;56.93;50.87;64.04;;
37163;Laerm;23057;48.554;14.454;2023-04-24T13:09:48;57.95;50.90;65.13;;
37163;Laerm;23057;48.554;14.454;2023-04-24T13:12:19;55.45;49.90;65.33;;
37163;Laerm;23057;48.554;14.454;2023-04-24T13:14:50;55.78;50.43;65.13;;
37163;Laerm;23057;48.554;14.454;2023-04-24T13:17:21;55.45;51.10;65.44;;
37163;Laerm;23057;48.554;14.454;2023-04-24T13:19:55;54.48;50.84;64.57;;
37163;Laerm;23057;48.554;14.454;2023-04-24T13:22:25;54.64;50.38;71.17;;
37163;Laerm;23057;48.554;14.454;2023-04-24T13:24:56;53.81;50.19;63.95;;
37163;Laerm;23057;48.554;14.454;2023-04-24T13:27:27;54.76;50.35;66.81;;
37163;Laerm;23057;48.554;14.454;2023-04-24T13:29:58;53.78;50.27;65.68;;
37163;Laerm;23057;48.554;14.454;2023-04-24T13:32:29;53.57;50.27;79.50;;
37163;Laerm;23057;48.554;14.454;2023-04-24T13:34:59;53.15;50.07;64.22;;
37163;Laerm;23057;48.554;14.454;2023-04-24T13:37:30;53.08;50.13;63.70;;
37163;Laerm;23057;48.554;14.454;2023-04-24T13:40:01;52.32;50.01;61.53;;
37163;Laerm;23057;48.554;14.454;2023-04-24T13:42:32;53.03;50.15;64.86;;
37163;Laerm;23057;48.554;14.454;2023-04-24T13:45:03;53.41;49.70;67.50;;
37163;Laerm;23057;48.554;14.454;2023-04-24T13:47:34;52.54;49.57;67.71;;
37163;Laerm;23057;48.554;14.454;2023-04-24T13:50:08;57.81;49.33;71.84;;
37163;Laerm;23057;48.554;14.454;2023-04-24T13:52:39;57.30;49.62;69.93;;
37163;Laerm;23057;48.554;14.454;2023-04-24T13:55:09;57.66;49.88;68.68;;
37163;Laerm;23057;48.554;14.454;2023-04-24T13:57:41;55.07;49.62;66.73;;
37163;Laerm;23057;48.554;14.454;2023-04-24T14:00:12;56.96;49.77;70.51;;
37163;Laerm;23057;48.554;14.454;2023-04-24T14:02:43;56.57;49.49;70.04;;
37163;Laerm;23057;48.554;14.454;2023-04-24T14:05:14;57.19;49.79;68.74;;
37163;Laerm;23057;48.554;14.454;2023-04-24T14:07:45;57.97;49.83;70.23;;
37163;Laerm;23057;48.554;14.454;2023-04-24T14:10:16;58.22;49.91;64.99;;
37163;Laerm;23057;48.554;14.454;2023-04-24T14:12:47;56.08;49.79;65.90;;
37163;Laerm;23057;48.554;14.454;2023-04-24T14:15:19;56.06;50.16;64.51;;
37163;Laerm;23057;48.554;14.454;2023-04-24T14:17:50;56.64;50.48;65.23;;